sensor_id;sensor_type;location;lat;lon;timestamp;pressure;altitude;pressure_sealevel;temperature;humidity
17781;BME280;8498;52.516;13.790;2023-04-16T00:00:34;100930.75;;;11.38;100.00
17781;BME280;8498;52.516;13.790;2023-04-16T00:05:57;100932.66;;;11.36;100.00
17781;BME280;8498;52.516;13.790;2023-04-16T00:11:20;100930.75;;;11.38;100.00
17781;BME280;8498;52.516;13.790;2023-04-16T00:16:43;100944.78;;;11.40;100.00
17781;BME280;8498;52.516;13.790;2023-04-16T00:22:05;100935.09;;;11.39;100.00
17781;BME280;8498;52.516;13.790;2023-04-16T00:27:28;100931.41;;;11.42;100.00
17781;BME280;8498;52.516;13.790;2023-04-16T00:32:50;100944.03;;;11.38;100.00
17781;BME280;8498;52.516;13.790;2023-04-16T00:38:13;100941.47;;;11.36;100.00
17781;BME280;8498;52.516;13.790;2023-04-16T00:43:35;100950.97;;;11.40;100.00
17781;BME280;8498;52.516;13.790;2023-04-16T00:48:59;100941.19;;;11.41;100.00
17781;BME280;8498;52.516;13.790;2023-04-16T00:54:23;100942.84;;;11.42;100.00
17781;BME280;8498;52.516;13.790;2023-04-16T00:59:46;100942.84;;;11.42;100.00
17781;BME280;8498;52.516;13.790;2023-04-16T01:05:08;100944.56;;;11.43;100.00
17781;BME280;8498;52.516;13.790;2023-04-16T01:10:31;100958.81;;;11.42;100.00
17781;BME280;8498;52.516;13.790;2023-04-16T01:15:53;100951.59;;;11.44;100.00
17781;BME280;8498;52.516;13.790;2023-04-16T01:21:16;100962.22;;;11.44;100.00
17781;BME280;8498;52.516;13.790;2023-04-16T01:26:38;100970.22;;;11.44;100.00
17781;BME280;8498;52.516;13.790;2023-04-16T01:32:01;100963.94;;;11.45;100.00
17781;BME280;8498;52.516;13.790;2023-04-16T01:37:29;100965.66;;;11.46;100.00
17781;BME280;8498;52.516;13.790;2023-04-16T01:42:52;100957.88;;;11.43;100.00
17781;BME280;8498;52.516;13.790;2023-04-16T01:48:15;100964.91;;;11.44;100.00
17781;BME280;8498;52.516;13.790;2023-04-16T01:53:37;100970.13;;;11.46;100.00
17781;BME280;8498;52.516;13.790;2023-04-16T01:59:00;100967.78;;;11.41;100.00
17781;BME280;8498;52.516;13.790;2023-04-16T02:04:28;100969.69;;;11.39;100.00
17781;BME280;8498;52.516;13.790;2023-04-16T02:09:50;100969.69;;;11.39;100.00
17781;BME280;8498;52.516;13.790;2023-04-16T02:15:12;100971.31;;;11.42;100.00
17781;BME280;8498;52.516;13.790;2023-04-16T02:20:41;100979.28;;;11.42;100.00
17781;BME280;8498;52.516;13.790;2023-04-16T02:26:04;100975.00;;;11.39;100.00
17781;BME280;8498;52.516;13.790;2023-04-16T02:31:27;100985.41;;;11.42;100.00
17781;BME280;8498;52.516;13.790;2023-04-16T02:36:51;100994.25;;;11.43;100.00
17781;BME280;8498;52.516;13.790;2023-04-16T02:42:13;100986.50;;;11.39;100.00
17781;BME280;8498;52.516;13.790;2023-04-16T02:47:36;100995.44;;;11.38;100.00
17781;BME280;8498;52.516;13.790;2023-04-16T02:52:58;100991.06;;;11.37;100.00
17781;BME280;8498;52.516;13.790;2023-04-16T02:58:22;100992.88;;;11.37;100.00
17781;BME280;8498;52.516;13.790;2023-04-16T03:03:45;100996.47;;;11.36;100.00
17781;BME280;8498;52.516;13.790;2023-04-16T03:09:07;100999.91;;;11.38;100.00
17781;BME280;8498;52.516;13.790;2023-04-16T03:14:30;101001.59;;;11.39;100.00
17781;BME280;8498;52.516;13.790;2023-04-16T03:19:53;101005.13;;;11.39;100.00
17781;BME280;8498;52.516;13.790;2023-04-16T03:25:15;101013.09;;;11.39;100.00
17781;BME280;8498;52.516;13.790;2023-04-16T03:30:37;101007.13;;;11.36;100.00
17781;BME280;8498;52.516;13.790;2023-04-16T03:36:01;101007.31;;;11.33;100.00
17781;BME280;8498;52.516;13.790;2023-04-16T03:41:25;101019.66;;;11.34;100.00
17781;BME280;8498;52.516;13.790;2023-04-16T03:46:48;101020.41;;;11.36;100.00
17781;BME280;8498;52.516;13.790;2023-04-16T03:52:11;101028.59;;;11.33;100.00
17781;BME280;8498;52.516;13.790;2023-04-16T03:57:34;101027.75;;;11.32;100.00
17781;BME280;8498;52.516;13.790;2023-04-16T04:03:02;101040.31;;;11.30;100.00
17781;BME280;8498;52.516;13.790;2023-04-16T04:08:26;101040.19;;;11.32;100.00
17781;BME280;8498;52.516;13.790;2023-04-16T04:13:48;101045.63;;;11.30;100.00
17781;BME280;8498;52.516;13.790;2023-04-16T04:19:10;101056.47;;;11.27;100.00
17781;BME280;8498;52.516;13.790;2023-04-16T04:24:33;101058.34;;;11.25;100.00
17781;BME280;8498;52.516;13.790;2023-04-16T04:29:57;101065.56;;;11.23;100.00
17781;BME280;8498;52.516;13.790;2023-04-16T04:35:19;101068.22;;;11.23;100.00
17781;BME280;8498;52.516;13.790;2023-04-16T04:40:42;101070.25;;;11.20;100.00
17781;BME280;8498;52.516;13.790;2023-04-16T04:46:05;101073.47;;;11.25;100.00
17781;BME280;8498;52.516;13.790;2023-04-16T04:51:28;101075.25;;;11.24;100.00
17781;BME280;8498;52.516;13.790;2023-04-16T04:56:51;101077.06;;;11.24;100.00
17781;BME280;8498;52.516;13.790;2023-04-16T05:02:14;101083.16;;;11.26;100.00
17781;BME280;8498;52.516;13.790;2023-04-16T05:07:37;101077.75;;;11.27;100.00
17781;BME280;8498;52.516;13.790;2023-04-16T05:12:59;101090.00;;;11.30;100.00
17781;BME280;8498;52.516;13.790;2023-04-16T05:18:22;101096.81;;;11.34;100.00
17781;BME280;8498;52.516;13.790;2023-04-16T05:23:44;101105.09;;;11.29;100.00
17781;BME280;8498;52.516;13.790;2023-04-16T05:29:07;101110.50;;;11.28;100.00
17781;BME280;8498;52.516;13.790;2023-04-16T05:34:30;101119.03;;;11.33;100.00
17781;BME280;8498;52.516;13.790;2023-04-16T05:39:53;101120.75;;;11.34;100.00
17781;BME280;8498;52.516;13.790;2023-04-16T05:45:15;101127.78;;;11.35;100.00
17781;BME280;8498;52.516;13.790;2023-04-16T05:50:40;101131.47;;;11.32;100.00
17781;BME280;8498;52.516;13.790;2023-04-16T05:56:02;101136.69;;;11.34;100.00
17781;BME280;8498;52.516;13.790;2023-04-16T06:01:25;101140.13;;;11.36;100.00
17781;BME280;8498;52.516;13.790;2023-04-16T06:06:47;101138.59;;;11.32;100.00
17781;BME280;8498;52.516;13.790;2023-04-16T06:12:10;101150.00;;;11.34;100.00
17781;BME280;8498;52.516;13.790;2023-04-16T06:17:35;101148.00;;;11.37;100.00
17781;BME280;8498;52.516;13.790;2023-04-16T06:22:57;101144.69;;;11.34;100.00
17781;BME280;8498;52.516;13.790;2023-04-16T06:28:20;101148.19;;;11.34;100.00
17781;BME280;8498;52.516;13.790;2023-04-16T06:33:42;101158.56;;;11.39;100.00
17781;BME280;8498;52.516;13.790;2023-04-16T06:39:05;101163.56;;;11.44;100.00
17781;BME280;8498;52.516;13.790;2023-04-16T06:44:27;101162.84;;;11.42;100.00
17781;BME280;8498;52.516;13.790;2023-04-16T06:49:50;101168.97;;;11.42;100.00
17781;BME280;8498;52.516;13.790;2023-04-16T06:55:12;101170.50;;;11.46;100.00
17781;BME280;8498;52.516;13.790;2023-04-16T07:00:35;101176.00;;;11.43;100.00
17781;BME280;8498;52.516;13.790;2023-04-16T07:05:57;101182.94;;;11.46;100.00
17781;BME280;8498;52.516;13.790;2023-04-16T07:11:20;101184.16;;;11.54;100.00
17781;BME280;8498;52.516;13.790;2023-04-16T07:16:43;101181.88;;;11.62;100.00
17781;BME280;8498;52.516;13.790;2023-04-16T07:22:06;101188.03;;;11.63;100.00
17781;BME280;8498;52.516;13.790;2023-04-16T07:34:07;101197.44;;;11.68;100.00
17781;BME280;8498;52.516;13.790;2023-04-16T07:39:29;101202.59;;;11.71;100.00
17781;BME280;8498;52.516;13.790;2023-04-16T07:44:52;101215.66;;;11.74;100.00
17781;BME280;8498;52.516;13.790;2023-04-16T07:50:14;101211.72;;;11.82;100.00
17781;BME280;8498;52.516;13.790;2023-04-16T07:55:37;101222.28;;;11.83;100.00
17781;BME280;8498;52.516;13.790;2023-04-16T08:01:00;101224.94;;;11.83;100.00
17781;BME280;8498;52.516;13.790;2023-04-16T08:06:23;101226.84;;;11.81;100.00
17781;BME280;8498;52.516;13.790;2023-04-16T08:11:46;101231.84;;;11.86;100.00
17781;BME280;8498;52.516;13.790;2023-04-16T08:17:11;101234.97;;;11.92;100.00
17781;BME280;8498;52.516;13.790;2023-04-16T08:22:33;101227.34;;;12.00;100.00
17781;BME280;8498;52.516;13.790;2023-04-16T08:27:56;101243.56;;;12.10;100.00
17781;BME280;8498;52.516;13.790;2023-04-16T08:33:20;101251.00;;;12.05;100.00
17781;BME280;8498;52.516;13.790;2023-04-16T08:38:42;101263.84;;;11.98;100.00
17781;BME280;8498;52.516;13.790;2023-04-16T08:44:07;101257.13;;;11.93;100.00
17781;BME280;8498;52.516;13.790;2023-04-16T08:49:32;101271.59;;;11.89;100.00
17781;BME280;8498;52.516;13.790;2023-04-16T08:55:11;101281.97;;;11.93;100.00
17781;BME280;8498;52.516;13.790;2023-04-16T09:00:34;101273.72;;;12.10;100.00
17781;BME280;8498;52.516;13.790;2023-04-16T09:05:58;101278.19;;;12.37;100.00
17781;BME280;8498;52.516;13.790;2023-04-16T09:11:22;101272.94;;;12.62;100.00
17781;BME280;8498;52.516;13.790;2023-04-16T09:16:45;101285.13;;;12.79;100.00
17781;BME280;8498;52.516;13.790;2023-04-16T09:22:11;101290.25;;;12.82;100.00
17781;BME280;8498;52.516;13.790;2023-04-16T09:27:35;101289.69;;;12.64;100.00
17781;BME280;8498;52.516;13.790;2023-04-16T09:33:16;101290.53;;;12.65;100.00
17781;BME280;8498;52.516;13.790;2023-04-16T09:38:51;101302.69;;;12.69;100.00
17781;BME280;8498;52.516;13.790;2023-04-16T09:44:15;101298.72;;;13.01;100.00
17781;BME280;8498;52.516;13.790;2023-04-16T09:49:41;101301.66;;;13.36;100.00
17781;BME280;8498;52.516;13.790;2023-04-16T09:55:04;101308.13;;;13.19;100.00
17781;BME280;8498;52.516;13.790;2023-04-16T10:00:29;101313.03;;;13.13;100.00
17781;BME280;8498;52.516;13.790;2023-04-16T10:05:55;101325.84;;;13.08;100.00
17781;BME280;8498;52.516;13.790;2023-04-16T10:11:19;101327.03;;;13.16;100.00
17781;BME280;8498;52.516;13.790;2023-04-16T10:16:42;101324.75;;;13.10;99.79
17781;BME280;8498;52.516;13.790;2023-04-16T10:28:18;101329.00;;;13.00;99.74
17781;BME280;8498;52.516;13.790;2023-04-16T10:39:34;101330.78;;;13.52;99.74
17781;BME280;8498;52.516;13.790;2023-04-16T10:45:00;101337.06;;;13.64;98.29
17781;BME280;8498;52.516;13.790;2023-04-16T10:50:22;101331.28;;;13.82;99.12
17781;BME280;8498;52.516;13.790;2023-04-16T10:55:58;101335.97;;;13.91;96.84
17781;BME280;8498;52.516;13.790;2023-04-16T11:01:32;101337.00;;;14.02;94.66
17781;BME280;8498;52.516;13.790;2023-04-16T11:12:26;101341.56;;;13.63;94.66
17781;BME280;8498;52.516;13.790;2023-04-16T11:17:53;101349.25;;;13.80;93.96
17781;BME280;8498;52.516;13.790;2023-04-16T11:23:16;101347.13;;;13.47;94.68
17781;BME280;8498;52.516;13.790;2023-04-16T11:28:38;101347.75;;;13.26;95.04
17781;BME280;8498;52.516;13.790;2023-04-16T11:34:00;101361.28;;;13.22;95.62
17781;BME280;8498;52.516;13.790;2023-04-16T11:39:25;101359.44;;;13.10;96.07
17781;BME280;8498;52.516;13.790;2023-04-16T11:44:54;101367.75;;;13.06;96.59
17781;BME280;8498;52.516;13.790;2023-04-16T11:50:24;101367.09;;;13.02;97.33
17781;BME280;8498;52.516;13.790;2023-04-16T11:55:46;101374.44;;;12.99;96.65
17781;BME280;8498;52.516;13.790;2023-04-16T12:01:09;101378.50;;;12.92;96.33
17781;BME280;8498;52.516;13.790;2023-04-16T12:06:32;101377.09;;;12.86;97.38
17781;BME280;8498;52.516;13.790;2023-04-16T12:11:54;101390.53;;;12.84;98.25
17781;BME280;8498;52.516;13.790;2023-04-16T12:17:20;101384.28;;;12.71;98.08
17781;BME280;8498;52.516;13.790;2023-04-16T12:22:47;101388.31;;;12.64;98.96
17781;BME280;8498;52.516;13.790;2023-04-16T12:28:10;101388.50;;;12.61;99.23
17781;BME280;8498;52.516;13.790;2023-04-16T12:33:33;101396.16;;;12.80;99.53
17781;BME280;8498;52.516;13.790;2023-04-16T12:38:55;101399.38;;;12.85;98.24
17781;BME280;8498;52.516;13.790;2023-04-16T12:44:17;101397.53;;;12.73;96.75
17781;BME280;8498;52.516;13.790;2023-04-16T12:49:40;101394.69;;;12.62;95.71
17781;BME280;8498;52.516;13.790;2023-04-16T12:55:02;101397.00;;;12.54;95.38
17781;BME280;8498;52.516;13.790;2023-04-16T13:00:25;101402.13;;;12.57;95.29
17781;BME280;8498;52.516;13.790;2023-04-16T13:05:48;101403.47;;;12.64;95.33
17781;BME280;8498;52.516;13.790;2023-04-16T13:11:10;101412.41;;;12.63;95.38
17781;BME280;8498;52.516;13.790;2023-04-16T13:16:33;101413.16;;;12.65;95.14
17781;BME280;8498;52.516;13.790;2023-04-16T13:21:56;101418.59;;;12.63;94.26
17781;BME280;8498;52.516;13.790;2023-04-16T13:27:18;101416.03;;;12.62;94.55
17781;BME280;8498;52.516;13.790;2023-04-16T13:32:41;101418.28;;;12.68;95.19
17781;BME280;8498;52.516;13.790;2023-04-16T13:38:04;101413.91;;;12.67;96.69
17781;BME280;8498;52.516;13.790;2023-04-16T13:43:27;101419.47;;;12.49;96.83
17781;BME280;8498;52.516;13.790;2023-04-16T13:48:49;101424.25;;;12.44;97.60
17781;BME280;8498;52.516;13.790;2023-04-16T13:54:12;101425.75;;;12.48;98.04
17781;BME280;8498;52.516;13.790;2023-04-16T13:59:35;101421.19;;;12.50;98.56
17781;BME280;8498;52.516;13.790;2023-04-16T14:04:57;101424.63;;;12.53;99.05
17781;BME280;8498;52.516;13.790;2023-04-16T14:10:19;101427.09;;;12.56;99.54
17781;BME280;8498;52.516;13.790;2023-04-16T14:15:42;101424.22;;;12.59;99.85
17781;BME280;8498;52.516;13.790;2023-04-16T14:21:04;101425.38;;;12.55;98.79
17781;BME280;8498;52.516;13.790;2023-04-16T14:26:27;101430.03;;;12.65;99.32
17781;BME280;8498;52.516;13.790;2023-04-16T14:31:49;101426.69;;;12.62;98.99
17781;BME280;8498;52.516;13.790;2023-04-16T14:37:14;101429.16;;;12.65;99.65
17781;BME280;8498;52.516;13.790;2023-04-16T14:42:37;101432.13;;;12.60;99.30
17781;BME280;8498;52.516;13.790;2023-04-16T14:48:00;101432.81;;;12.49;99.84
17781;BME280;8498;52.516;13.790;2023-04-16T14:53:23;101439.00;;;12.50;99.52
17781;BME280;8498;52.516;13.790;2023-04-16T14:58:46;101442.59;;;12.49;100.00
17781;BME280;8498;52.516;13.790;2023-04-16T15:04:09;101450.69;;;12.47;100.00
17781;BME280;8498;52.516;13.790;2023-04-16T15:09:33;101441.56;;;12.52;100.00
17781;BME280;8498;52.516;13.790;2023-04-16T15:14:56;101444.78;;;12.57;100.00
17781;BME280;8498;52.516;13.790;2023-04-16T15:20:18;101448.78;;;12.64;100.00
17781;BME280;8498;52.516;13.790;2023-04-16T15:25:41;101450.84;;;12.73;99.88
17781;BME280;8498;52.516;13.790;2023-04-16T15:31:03;101454.47;;;12.72;99.35
17781;BME280;8498;52.516;13.790;2023-04-16T15:36:26;101454.00;;;12.65;98.55
17781;BME280;8498;52.516;13.790;2023-04-16T15:41:48;101455.06;;;12.63;99.75
17781;BME280;8498;52.516;13.790;2023-04-16T15:47:23;101457.38;;;12.55;98.64
17781;BME280;8498;52.516;13.790;2023-04-16T15:52:46;101472.88;;;12.48;98.69
17781;BME280;8498;52.516;13.790;2023-04-16T15:58:08;101483.06;;;12.41;97.83
17781;BME280;8498;52.516;13.790;2023-04-16T16:03:31;101497.53;;;12.37;98.26
17781;BME280;8498;52.516;13.790;2023-04-16T16:08:55;101485.66;;;12.29;98.52
17781;BME280;8498;52.516;13.790;2023-04-16T16:14:18;101486.69;;;12.26;99.23
17781;BME280;8498;52.516;13.790;2023-04-16T16:19:40;101494.03;;;12.23;99.72
17781;BME280;8498;52.516;13.790;2023-04-16T16:25:03;101501.75;;;12.13;100.00
17781;BME280;8498;52.516;13.790;2023-04-16T16:30:26;101498.00;;;12.01;100.00
17781;BME280;8498;52.516;13.790;2023-04-16T16:35:48;101507.22;;;11.96;100.00
17781;BME280;8498;52.516;13.790;2023-04-16T16:41:11;101506.66;;;11.91;100.00
17781;BME280;8498;52.516;13.790;2023-04-16T16:46:36;101514.66;;;11.91;100.00
17781;BME280;8498;52.516;13.790;2023-04-16T16:51:59;101512.94;;;11.90;100.00
17781;BME280;8498;52.516;13.790;2023-04-16T16:57:22;101527.34;;;11.86;100.00
17781;BME280;8498;52.516;13.790;2023-04-16T17:02:47;101523.72;;;11.72;100.00
17781;BME280;8498;52.516;13.790;2023-04-16T17:08:12;101525.69;;;11.69;100.00
17781;BME280;8498;52.516;13.790;2023-04-16T17:13:35;101534.13;;;11.61;100.00
17781;BME280;8498;52.516;13.790;2023-04-16T17:18:57;101539.44;;;11.61;100.00
17781;BME280;8498;52.516;13.790;2023-04-16T17:24:20;101537.91;;;11.57;100.00
17781;BME280;8498;52.516;13.790;2023-04-16T17:29:42;101548.16;;;11.49;100.00
17781;BME280;8498;52.516;13.790;2023-04-16T17:35:05;101553.38;;;11.51;100.00
17781;BME280;8498;52.516;13.790;2023-04-16T17:40:27;101556.28;;;11.46;100.00
17781;BME280;8498;52.516;13.790;2023-04-16T17:45:50;101566.25;;;11.43;100.00
17781;BME280;8498;52.516;13.790;2023-04-16T17:51:12;101564.13;;;11.33;100.00
17781;BME280;8498;52.516;13.790;2023-04-16T17:56:37;101572.28;;;11.30;100.00
17781;BME280;8498;52.516;13.790;2023-04-16T18:02:00;101572.28;;;11.30;100.00
17781;BME280;8498;52.516;13.790;2023-04-16T18:07:23;101576.75;;;11.30;100.00
17781;BME280;8498;52.516;13.790;2023-04-16T18:12:45;101592.28;;;11.22;100.00
17781;BME280;8498;52.516;13.790;2023-04-16T18:18:08;101595.03;;;11.20;100.00
17781;BME280;8498;52.516;13.790;2023-04-16T18:23:31;101600.44;;;11.19;100.00
17781;BME280;8498;52.516;13.790;2023-04-16T18:28:53;101602.31;;;11.17;100.00
17781;BME280;8498;52.516;13.790;2023-04-16T18:34:16;101610.81;;;11.08;100.00
17781;BME280;8498;52.516;13.790;2023-04-16T18:39:39;101615.72;;;10.99;100.00
17781;BME280;8498;52.516;13.790;2023-04-16T18:45:02;101626.50;;;10.96;100.00
17781;BME280;8498;52.516;13.790;2023-04-16T18:50:24;101634.78;;;10.90;100.00
17781;BME280;8498;52.516;13.790;2023-04-16T18:55:51;101639.50;;;10.85;100.00
17781;BME280;8498;52.516;13.790;2023-04-16T19:01:14;101640.38;;;10.86;100.00
17781;BME280;8498;52.516;13.790;2023-04-16T19:06:37;101640.44;;;10.84;100.00
17781;BME280;8498;52.516;13.790;2023-04-16T19:12:00;101653.91;;;10.81;100.00
17781;BME280;8498;52.516;13.790;2023-04-16T19:17:23;101645.47;;;10.73;100.00
17781;BME280;8498;52.516;13.790;2023-04-16T19:22:45;101645.75;;;10.69;100.00
17781;BME280;8498;52.516;13.790;2023-04-16T19:28:08;101643.31;;;10.64;100.00
17781;BME280;8498;52.516;13.790;2023-04-16T19:33:31;101649.56;;;10.63;100.00
17781;BME280;8498;52.516;13.790;2023-04-16T19:38:53;101653.94;;;10.64;100.00
17781;BME280;8498;52.516;13.790;2023-04-16T19:44:16;101656.16;;;10.56;100.00
17781;BME280;8498;52.516;13.790;2023-04-16T19:49:38;101649.19;;;10.53;100.00
17781;BME280;8498;52.516;13.790;2023-04-16T19:55:05;101654.34;;;10.56;100.00
17781;BME280;8498;52.516;13.790;2023-04-16T20:00:28;101659.81;;;10.53;100.00
17781;BME280;8498;52.516;13.790;2023-04-16T20:05:50;101663.41;;;10.52;100.00
17781;BME280;8498;52.516;13.790;2023-04-16T20:11:13;101661.47;;;10.56;100.00
17781;BME280;8498;52.516;13.790;2023-04-16T20:16:35;101664.28;;;10.53;100.00
17781;BME280;8498;52.516;13.790;2023-04-16T20:21:59;101661.88;;;10.48;100.00
17781;BME280;8498;52.516;13.790;2023-04-16T20:27:23;101661.16;;;10.45;100.00
17781;BME280;8498;52.516;13.790;2023-04-16T20:32:45;101661.16;;;10.45;100.00
17781;BME280;8498;52.516;13.790;2023-04-16T20:38:08;101667.50;;;10.42;100.00
17781;BME280;8498;52.516;13.790;2023-04-16T20:43:31;101668.84;;;10.34;100.00
17781;BME280;8498;52.516;13.790;2023-04-16T20:48:59;101674.69;;;10.40;100.00
17781;BME280;8498;52.516;13.790;2023-04-16T20:54:24;101674.00;;;10.37;100.00
17781;BME280;8498;52.516;13.790;2023-04-16T20:59:48;101677.41;;;10.39;100.00
17781;BME280;8498;52.516;13.790;2023-04-16T21:05:10;101679.13;;;10.40;100.00
17781;BME280;8498;52.516;13.790;2023-04-16T21:10:35;101682.91;;;10.36;100.00
17781;BME280;8498;52.516;13.790;2023-04-16T21:15:58;101689.16;;;10.35;100.00
17781;BME280;8498;52.516;13.790;2023-04-16T21:21:21;101690.09;;;10.34;100.00
17781;BME280;8498;52.516;13.790;2023-04-16T21:26:43;101693.53;;;10.36;100.00
17781;BME280;8498;52.516;13.790;2023-04-16T21:32:06;101686.50;;;10.35;100.00
17781;BME280;8498;52.516;13.790;2023-04-16T21:37:28;101694.53;;;10.33;100.00
17781;BME280;8498;52.516;13.790;2023-04-16T21:42:51;101697.25;;;10.32;100.00
17781;BME280;8498;52.516;13.790;2023-04-16T21:48:13;101695.72;;;10.27;100.00
17781;BME280;8498;52.516;13.790;2023-04-16T21:53:36;101698.44;;;10.26;100.00
17781;BME280;8498;52.516;13.790;2023-04-16T21:59:00;101697.66;;;10.24;100.00
17781;BME280;8498;52.516;13.790;2023-04-16T22:04:22;101693.22;;;10.24;100.00
17781;BME280;8498;52.516;13.790;2023-04-16T22:09:47;101693.34;;;10.21;100.00
17781;BME280;8498;52.516;13.790;2023-04-16T22:15:10;101698.03;;;10.16;100.00
17781;BME280;8498;52.516;13.790;2023-04-16T22:20:32;101697.16;;;10.16;100.00
17781;BME280;8498;52.516;13.790;2023-04-16T22:26:00;101699.81;;;10.16;100.00
17781;BME280;8498;52.516;13.790;2023-04-16T22:31:24;101698.16;;;10.13;100.00
17781;BME280;8498;52.516;13.790;2023-04-16T22:36:46;101700.97;;;10.10;100.00
17781;BME280;8498;52.516;13.790;2023-04-16T22:42:12;101698.63;;;10.04;100.00
17781;BME280;8498;52.516;13.790;2023-04-16T22:47:34;101705.81;;;10.02;100.00
17781;BME280;8498;52.516;13.790;2023-04-16T22:52:57;101706.00;;;9.98;100.00
17781;BME280;8498;52.516;13.790;2023-04-16T22:58:19;101700.63;;;9.99;100.00
17781;BME280;8498;52.516;13.790;2023-04-16T23:03:42;101707.97;;;9.94;100.00
17781;BME280;8498;52.516;13.790;2023-04-16T23:09:05;101709.06;;;9.90;100.00
17781;BME280;8498;52.516;13.790;2023-04-16T23:14:27;101706.53;;;9.87;100.00
17781;BME280;8498;52.516;13.790;2023-04-16T23:19:50;101718.94;;;9.86;100.00
17781;BME280;8498;52.516;13.790;2023-04-16T23:25:12;101715.75;;;9.80;100.00
17781;BME280;8498;52.516;13.790;2023-04-16T23:30:35;101721.97;;;9.79;100.00
17781;BME280;8498;52.516;13.790;2023-04-16T23:35:57;101716.91;;;9.74;100.00
17781;BME280;8498;52.516;13.790;2023-04-16T23:41:19;101729.25;;;9.75;100.00
17781;BME280;8498;52.516;13.790;2023-04-16T23:46:44;101718.91;;;9.69;100.00
17781;BME280;8498;52.516;13.790;2023-04-16T23:52:07;101714.59;;;9.67;100.00
17781;BME280;8498;52.516;13.790;2023-04-16T23:57:29;101718.97;;;9.68;100.00
